createdAt,value
2023-05-14T00:00:18.453Z,482.00
2023-05-14T00:01:18.490Z,482.00
2023-05-14T00:02:18.556Z,480.00
2023-05-14T00:03:18.730Z,480.00
2023-05-14T00:04:18.712Z,479.00
2023-05-14T00:05:18.789Z,479.00
2023-05-14T00:06:18.755Z,480.00
2023-05-14T00:07:18.792Z,482.00
2023-05-14T00:08:18.854Z,485.00
2023-05-14T00:09:18.871Z,486.00
2023-05-14T00:10:18.889Z,484.00
2023-05-14T00:11:18.939Z,481.00
2023-05-14T00:12:19.002Z,479.00
2023-05-14T00:13:19.040Z,477.00
2023-05-14T00:14:19.082Z,474.00
2023-05-14T00:15:19.111Z,474.00
2023-05-14T00:16:19.234Z,474.00
2023-05-14T00:17:19.277Z,475.00
2023-05-14T00:18:19.281Z,479.00
2023-05-14T00:19:19.365Z,481.00
2023-05-14T00:20:19.420Z,480.00
2023-05-14T00:21:19.503Z,481.00
2023-05-14T00:22:19.522Z,481.00
2023-05-14T00:23:19.536Z,480.00
2023-05-14T00:24:19.590Z,479.00
2023-05-14T00:25:19.638Z,483.00
2023-05-14T00:26:19.658Z,483.00
2023-05-14T00:27:19.718Z,484.00
2023-05-14T00:28:19.746Z,484.00
2023-05-14T00:29:19.785Z,484.00
2023-05-14T00:30:19.834Z,486.00
2023-05-14T00:31:19.958Z,488.00
2023-05-14T00:32:19.932Z,487.00
2023-05-14T00:33:19.972Z,486.00
2023-05-14T00:34:20.009Z,485.00
2023-05-14T00:35:20.064Z,484.00
2023-05-14T00:36:20.087Z,483.00
2023-05-14T00:37:20.144Z,484.00
2023-05-14T00:38:20.163Z,485.00
2023-05-14T00:39:20.230Z,486.00
2023-05-14T00:40:20.254Z,486.00
2023-05-14T00:41:20.276Z,489.00
2023-05-14T00:42:20.363Z,490.00
2023-05-14T00:43:20.376Z,491.00
2023-05-14T00:44:20.399Z,489.00
2023-05-14T00:45:20.445Z,490.00
2023-05-14T00:46:20.505Z,491.00
2023-05-14T00:47:20.534Z,489.00
2023-05-14T00:48:20.528Z,488.00
2023-05-14T00:49:20.580Z,488.00
2023-05-14T00:50:20.621Z,488.00
2023-05-14T00:51:20.674Z,486.00
2023-05-14T00:52:20.713Z,486.00
2023-05-14T00:53:20.747Z,485.00
2023-05-14T00:54:20.776Z,485.00
2023-05-14T00:55:20.830Z,484.00
2023-05-14T00:56:20.875Z,484.00
2023-05-14T00:57:20.919Z,485.00
2023-05-14T00:58:21.093Z,484.00
2023-05-14T00:59:21.209Z,483.00
2023-05-14T01:00:21.408Z,484.00
2023-05-14T01:01:21.347Z,486.00
2023-05-14T01:02:21.349Z,486.00
2023-05-14T01:03:21.493Z,486.00
2023-05-14T01:04:21.423Z,486.00
2023-05-14T01:05:21.449Z,485.00
2023-05-14T01:06:21.483Z,485.00
2023-05-14T01:07:21.511Z,484.00
2023-05-14T01:08:21.541Z,483.00
2023-05-14T01:09:21.570Z,484.00
2023-05-14T01:10:21.797Z,483.00
2023-05-14T01:11:21.609Z,481.00
2023-05-14T01:12:21.625Z,482.00
2023-05-14T01:13:21.667Z,481.00
2023-05-14T01:14:21.705Z,483.00
2023-05-14T01:15:21.730Z,484.00
2023-05-14T01:16:21.800Z,485.00
2023-05-14T01:17:21.804Z,483.00
2023-05-14T01:18:21.825Z,483.00
2023-05-14T01:19:21.850Z,482.00
2023-05-14T01:20:22.169Z,482.00
2023-05-14T01:21:21.927Z,482.00
2023-05-14T01:22:21.960Z,481.00
2023-05-14T01:23:21.992Z,479.00
2023-05-14T01:24:22.104Z,477.00
2023-05-14T01:25:22.022Z,475.00
2023-05-14T01:26:22.034Z,476.00
2023-05-14T01:27:22.055Z,478.00
2023-05-14T01:28:22.076Z,480.00
2023-05-14T01:29:22.098Z,479.00
2023-05-14T01:30:22.328Z,478.00
2023-05-14T01:31:22.205Z,476.00
2023-05-14T01:32:22.239Z,479.00
2023-05-14T01:33:22.256Z,478.00
2023-05-14T01:34:22.312Z,478.00
2023-05-14T01:35:22.346Z,477.00
2023-05-14T01:36:22.350Z,479.00
2023-05-14T01:37:22.396Z,479.00
2023-05-14T01:38:22.403Z,477.00
2023-05-14T01:39:22.409Z,478.00
2023-05-14T01:40:22.676Z,477.00
2023-05-14T01:41:22.468Z,478.00
2023-05-14T01:42:22.503Z,480.00
2023-05-14T01:43:22.545Z,480.00
2023-05-14T01:44:22.577Z,480.00
2023-05-14T01:45:22.625Z,480.00
2023-05-14T01:46:22.750Z,479.00
2023-05-14T01:47:22.746Z,480.00
2023-05-14T01:48:22.742Z,479.00
2023-05-14T01:49:22.780Z,477.00
2023-05-14T01:50:22.991Z,478.00
2023-05-14T01:51:22.850Z,475.00
2023-05-14T01:52:22.871Z,475.00
2023-05-14T01:53:22.926Z,475.00
2023-05-14T01:54:22.956Z,476.00
2023-05-14T01:55:23.032Z,475.00
2023-05-14T01:56:23.031Z,476.00
2023-05-14T01:57:23.041Z,476.00
2023-05-14T01:58:23.043Z,476.00
2023-05-14T01:59:23.104Z,476.00
2023-05-14T02:00:23.425Z,475.00
2023-05-14T02:01:23.203Z,475.00
2023-05-14T02:02:23.208Z,472.00
2023-05-14T02:03:23.170Z,474.00
2023-05-14T02:04:23.211Z,473.00
2023-05-14T02:05:23.216Z,471.00
2023-05-14T02:06:23.248Z,473.00
2023-05-14T02:07:23.279Z,474.00
2023-05-14T02:08:23.300Z,475.00
2023-05-14T02:09:23.347Z,474.00
2023-05-14T02:10:23.628Z,474.00
2023-05-14T02:11:23.387Z,476.00
2023-05-14T02:12:23.422Z,476.00
2023-05-14T02:13:23.436Z,474.00
2023-05-14T02:14:23.532Z,475.00
2023-05-14T02:15:23.485Z,473.00
2023-05-14T02:16:23.551Z,474.00
2023-05-14T02:17:23.552Z,478.00
2023-05-14T02:18:23.576Z,478.00
2023-05-14T02:19:23.600Z,477.00
2023-05-14T02:20:23.822Z,476.00
2023-05-14T02:21:23.689Z,476.00
2023-05-14T02:22:23.715Z,476.00
2023-05-14T02:23:34.076Z,479.00
2023-05-14T02:24:24.797Z,482.00
2023-05-14T02:25:23.829Z,482.00
2023-05-14T02:26:23.806Z,482.00
2023-05-14T02:27:23.747Z,481.00
2023-05-14T02:28:23.737Z,480.00
2023-05-14T02:29:23.739Z,482.00
2023-05-14T02:30:23.905Z,482.00
2023-05-14T02:31:23.744Z,481.00
2023-05-14T02:32:23.806Z,481.00
2023-05-14T02:33:23.780Z,479.00
2023-05-14T02:34:23.683Z,477.00
2023-05-14T02:35:23.748Z,479.00
2023-05-14T02:36:23.828Z,481.00
2023-05-14T02:37:23.832Z,480.00
2023-05-14T02:38:23.897Z,480.00
2023-05-14T02:39:23.959Z,476.00
2023-05-14T02:40:24.344Z,477.00
2023-05-14T02:41:24.057Z,477.00
2023-05-14T02:42:24.109Z,478.00
2023-05-14T02:43:24.173Z,477.00
2023-05-14T02:44:24.231Z,477.00
2023-05-14T02:45:24.301Z,476.00
2023-05-14T02:46:24.319Z,476.00
2023-05-14T02:47:24.357Z,475.00
2023-05-14T02:48:24.397Z,476.00
2023-05-14T02:49:24.385Z,478.00
2023-05-14T02:50:24.689Z,480.00
2023-05-14T02:51:24.425Z,480.00
2023-05-14T02:52:24.433Z,479.00
2023-05-14T02:53:24.501Z,479.00
2023-05-14T02:54:24.562Z,480.00
2023-05-14T02:55:24.591Z,483.00
2023-05-14T02:56:24.604Z,482.00
2023-05-14T02:57:24.777Z,481.00
2023-05-14T02:58:27.439Z,481.00
2023-05-14T02:59:24.712Z,480.00
2023-05-14T03:00:24.993Z,481.00
2023-05-14T03:01:24.730Z,481.00
2023-05-14T03:02:24.771Z,480.00
2023-05-14T03:03:24.691Z,478.00
2023-05-14T03:04:24.668Z,476.00
2023-05-14T03:05:24.679Z,478.00
2023-05-14T03:06:24.643Z,478.00
2023-05-14T03:07:24.657Z,478.00
2023-05-14T03:08:24.620Z,476.00
2023-05-14T03:09:24.624Z,474.00
2023-05-14T03:10:24.824Z,474.00
2023-05-14T03:11:24.632Z,474.00
2023-05-14T03:12:24.608Z,474.00
2023-05-14T03:13:24.599Z,473.00
2023-05-14T03:14:24.622Z,473.00
2023-05-14T03:15:24.636Z,472.00
2023-05-14T03:16:24.588Z,473.00
2023-05-14T03:17:24.589Z,474.00
2023-05-14T03:18:24.605Z,474.00
2023-05-14T03:19:24.562Z,474.00
2023-05-14T03:20:24.729Z,475.00
2023-05-14T03:21:24.539Z,475.00
2023-05-14T03:22:24.546Z,477.00
2023-05-14T03:23:24.525Z,477.00
2023-05-14T03:24:24.520Z,478.00
2023-05-14T03:25:24.528Z,478.00
2023-05-14T03:26:24.505Z,479.00
2023-05-14T03:27:24.492Z,480.00
2023-05-14T03:28:24.506Z,482.00
2023-05-14T03:29:24.498Z,484.00
2023-05-14T03:30:24.809Z,482.00
2023-05-14T03:31:24.518Z,484.00
2023-05-14T03:32:24.503Z,486.00
2023-05-14T03:33:24.484Z,487.00
2023-05-14T03:34:24.454Z,486.00
2023-05-14T03:35:24.483Z,489.00
2023-05-14T03:36:24.560Z,489.00
2023-05-14T03:37:24.628Z,486.00
2023-05-14T03:38:24.659Z,487.00
2023-05-14T03:39:24.717Z,484.00
2023-05-14T03:40:24.933Z,484.00
2023-05-14T03:41:24.826Z,484.00
2023-05-14T03:42:24.873Z,485.00
2023-05-14T03:43:24.892Z,483.00
2023-05-14T03:44:24.983Z,484.00
2023-05-14T03:45:25.016Z,485.00
2023-05-14T03:46:25.040Z,486.00
2023-05-14T03:47:25.138Z,486.00
2023-05-14T03:48:25.177Z,487.00
2023-05-14T03:49:25.137Z,488.00
2023-05-14T03:50:25.527Z,488.00
2023-05-14T03:51:25.224Z,487.00
2023-05-14T03:52:25.292Z,486.00
2023-05-14T03:53:25.328Z,487.00
2023-05-14T03:54:25.382Z,488.00
2023-05-14T03:55:25.419Z,489.00
2023-05-14T03:56:25.473Z,488.00
2023-05-14T03:57:25.569Z,487.00
2023-05-14T03:58:25.634Z,485.00
2023-05-14T03:59:25.673Z,484.00
2023-05-14T04:00:26.091Z,482.00
2023-05-14T04:01:25.750Z,482.00
2023-05-14T04:02:25.917Z,482.00
2023-05-14T04:03:26.019Z,484.00
2023-05-14T04:04:25.977Z,486.00
2023-05-14T04:05:25.865Z,487.00
2023-05-14T04:06:25.971Z,487.00
2023-05-14T04:07:25.973Z,488.00
2023-05-14T04:08:26.045Z,487.00
2023-05-14T04:09:26.069Z,489.00
2023-05-14T04:10:26.147Z,490.00
2023-05-14T04:11:26.201Z,488.00
2023-05-14T04:12:26.235Z,487.00
2023-05-14T04:13:26.279Z,486.00
2023-05-14T04:14:26.322Z,485.00
2023-05-14T04:15:26.365Z,483.00
2023-05-14T04:16:26.504Z,484.00
2023-05-14T04:17:26.537Z,484.00
2023-05-14T04:18:26.601Z,485.00
2023-05-14T04:19:26.618Z,484.00
2023-05-14T04:20:26.615Z,484.00
2023-05-14T04:21:26.645Z,483.00
2023-05-14T04:22:26.682Z,485.00
2023-05-14T04:23:26.723Z,489.00
2023-05-14T04:24:26.803Z,490.00
2023-05-14T04:25:26.853Z,488.00
2023-05-14T04:26:26.911Z,486.00
2023-05-14T04:27:26.970Z,486.00
2023-05-14T04:28:27.004Z,484.00
2023-05-14T04:29:27.013Z,485.00
2023-05-14T04:30:27.068Z,481.00
2023-05-14T04:31:27.135Z,481.00
2023-05-14T04:32:27.142Z,484.00
2023-05-14T04:33:27.179Z,484.00
2023-05-14T04:34:27.260Z,484.00
2023-05-14T04:35:27.280Z,484.00
2023-05-14T04:36:27.381Z,485.00
2023-05-14T04:37:27.373Z,483.00
2023-05-14T04:38:27.405Z,483.00
2023-05-14T04:39:27.462Z,482.00
2023-05-14T04:40:27.565Z,483.00
2023-05-14T04:41:27.538Z,485.00
2023-05-14T04:42:27.564Z,485.00
2023-05-14T04:43:27.626Z,483.00
2023-05-14T04:44:27.644Z,482.00
2023-05-14T04:45:27.681Z,480.00
2023-05-14T04:46:27.830Z,480.00
2023-05-14T04:47:27.826Z,481.00
2023-05-14T04:48:27.796Z,480.00
2023-05-14T04:49:27.828Z,479.00
2023-05-14T04:50:27.901Z,480.00
2023-05-14T04:51:27.921Z,480.00
2023-05-14T04:52:27.940Z,481.00
2023-05-14T04:53:27.968Z,483.00
2023-05-14T04:54:28.035Z,484.00
2023-05-14T04:55:28.064Z,483.00
2023-05-14T04:56:28.100Z,486.00
2023-05-14T04:57:28.128Z,486.00
2023-05-14T04:58:28.173Z,486.00
2023-05-14T04:59:28.223Z,485.00
2023-05-14T05:00:28.277Z,486.00
2023-05-14T05:01:28.377Z,485.00
2023-05-14T05:02:28.410Z,483.00
2023-05-14T05:03:28.479Z,483.00
2023-05-14T05:04:28.376Z,483.00
2023-05-14T05:05:28.384Z,485.00
2023-05-14T05:06:28.445Z,487.00
2023-05-14T05:07:28.482Z,487.00
2023-05-14T05:08:28.524Z,487.00
2023-05-14T05:09:28.551Z,488.00
2023-05-14T05:10:28.601Z,487.00
2023-05-14T05:11:28.648Z,484.00
2023-05-14T05:12:28.677Z,484.00
2023-05-14T05:13:28.703Z,483.00
2023-05-14T05:14:28.711Z,482.00
2023-05-14T05:15:28.748Z,483.00
2023-05-14T05:16:28.806Z,484.00
2023-05-14T05:17:28.840Z,484.00
2023-05-14T05:18:28.910Z,487.00
2023-05-14T05:19:39.545Z,487.00
2023-05-14T05:20:29.903Z,489.00
2023-05-14T05:21:28.915Z,489.00
2023-05-14T05:22:28.914Z,490.00
2023-05-14T05:23:28.898Z,490.00
2023-05-14T05:24:28.871Z,488.00
2023-05-14T05:25:28.885Z,488.00
2023-05-14T05:26:28.966Z,487.00
2023-05-14T05:27:28.870Z,487.00
2023-05-14T05:28:28.852Z,486.00
2023-05-14T05:29:28.900Z,485.00
2023-05-14T05:30:28.954Z,483.00
2023-05-14T05:31:29.089Z,483.00
2023-05-14T05:32:29.141Z,484.00
2023-05-14T05:33:29.094Z,488.00
2023-05-14T05:34:29.177Z,486.00
2023-05-14T05:35:29.217Z,487.00
2023-05-14T05:36:29.258Z,486.00
2023-05-14T05:37:29.274Z,484.00
2023-05-14T05:38:29.325Z,485.00
2023-05-14T05:39:29.476Z,482.00
2023-05-14T05:40:29.543Z,481.00
2023-05-14T05:41:29.727Z,479.00
2023-05-14T05:42:29.891Z,481.00
2023-05-14T05:43:29.956Z,482.00
2023-05-14T05:44:30.054Z,481.00
2023-05-14T05:45:30.053Z,480.00
2023-05-14T05:46:30.103Z,479.00
2023-05-14T05:47:30.163Z,477.00
2023-05-14T05:48:30.205Z,478.00
2023-05-14T05:49:30.255Z,477.00
2023-05-14T05:50:30.305Z,477.00
2023-05-14T05:51:30.372Z,478.00
2023-05-14T05:52:30.402Z,478.00
2023-05-14T05:53:30.537Z,476.00
2023-05-14T05:54:30.509Z,478.00
2023-05-14T05:55:30.490Z,479.00
2023-05-14T05:56:30.570Z,479.00
2023-05-14T05:57:30.617Z,482.00
2023-05-14T05:58:30.596Z,482.00
2023-05-14T05:59:30.663Z,484.00
2023-05-14T06:00:30.702Z,483.00
2023-05-14T06:01:30.719Z,483.00
2023-05-14T06:02:30.915Z,482.00
2023-05-14T06:03:30.777Z,480.00
2023-05-14T06:04:30.808Z,480.00
2023-05-14T06:05:30.881Z,478.00
2023-05-14T06:06:30.878Z,477.00
2023-05-14T06:07:30.961Z,474.00
2023-05-14T06:08:30.983Z,478.00
2023-05-14T06:09:31.015Z,477.00
2023-05-14T06:10:31.064Z,475.00
2023-05-14T06:11:31.125Z,475.00
2023-05-14T06:12:31.186Z,474.00
2023-05-14T06:13:31.239Z,473.00
2023-05-14T06:14:31.291Z,473.00
2023-05-14T06:15:31.410Z,472.00
2023-05-14T06:16:31.435Z,471.00
2023-05-14T06:17:31.501Z,470.00
2023-05-14T06:18:31.547Z,470.00
2023-05-14T06:19:31.545Z,468.00
2023-05-14T06:20:31.552Z,467.00
2023-05-14T06:21:31.596Z,465.00
2023-05-14T06:22:31.663Z,464.00
2023-05-14T06:23:31.725Z,464.00
2023-05-14T06:24:31.762Z,467.00
2023-05-14T06:25:31.806Z,465.00
2023-05-14T06:26:31.846Z,467.00
2023-05-14T06:27:31.886Z,467.00
2023-05-14T06:28:31.930Z,467.00
2023-05-14T06:29:31.954Z,466.00
2023-05-14T06:30:32.019Z,465.00
2023-05-14T06:31:32.118Z,464.00
2023-05-14T06:32:32.151Z,465.00
2023-05-14T06:33:32.148Z,463.00
2023-05-14T06:34:32.196Z,462.00
2023-05-14T06:35:32.209Z,464.00
2023-05-14T06:36:32.303Z,467.00
2023-05-14T06:37:32.247Z,466.00
2023-05-14T06:38:32.289Z,465.00
2023-05-14T06:39:32.333Z,467.00
2023-05-14T06:40:32.397Z,464.00
2023-05-14T06:41:32.373Z,465.00
2023-05-14T06:42:32.435Z,465.00
2023-05-14T06:43:32.482Z,465.00
2023-05-14T06:44:32.504Z,465.00
2023-05-14T06:45:33.256Z,465.00
2023-05-14T06:46:32.548Z,466.00
2023-05-14T06:47:32.599Z,463.00
2023-05-14T06:48:32.698Z,464.00
2023-05-14T06:49:32.660Z,464.00
2023-05-14T06:50:32.698Z,467.00
2023-05-14T06:51:32.733Z,468.00
2023-05-14T06:52:32.746Z,468.00
2023-05-14T06:53:32.765Z,469.00
2023-05-14T06:54:32.818Z,468.00
2023-05-14T06:55:32.839Z,465.00
2023-05-14T06:56:32.892Z,464.00
2023-05-14T06:57:32.941Z,465.00
2023-05-14T06:58:32.953Z,463.00
2023-05-14T06:59:32.986Z,464.00
2023-05-14T07:00:33.031Z,465.00
2023-05-14T07:01:33.121Z,462.00
2023-05-14T07:02:33.081Z,462.00
2023-05-14T07:03:33.150Z,461.00
2023-05-14T07:04:33.236Z,459.00
2023-05-14T07:05:33.227Z,457.00
2023-05-14T07:06:33.262Z,457.00
2023-05-14T07:07:33.285Z,458.00
2023-05-14T07:08:33.312Z,456.00
2023-05-14T07:09:33.380Z,457.00
2023-05-14T07:10:33.413Z,457.00
2023-05-14T07:11:33.483Z,456.00
2023-05-14T07:12:33.517Z,456.00
2023-05-14T07:13:33.569Z,459.00
2023-05-14T07:14:33.630Z,459.00
2023-05-14T07:15:33.686Z,462.00
2023-05-14T07:16:33.774Z,461.00
2023-05-14T07:17:33.808Z,462.00
2023-05-14T07:18:33.907Z,462.00
2023-05-14T07:19:33.880Z,461.00
2023-05-14T07:20:33.963Z,461.00
2023-05-14T07:21:34.002Z,460.00
2023-05-14T07:22:34.096Z,458.00
2023-05-14T07:23:34.186Z,458.00
2023-05-14T07:24:34.200Z,461.00
2023-05-14T07:25:34.243Z,463.00
2023-05-14T07:26:34.404Z,463.00
2023-05-14T07:27:34.464Z,462.00
2023-05-14T07:28:34.501Z,461.00
2023-05-14T07:29:34.563Z,461.00
2023-05-14T07:30:34.620Z,463.00
2023-05-14T07:31:34.825Z,464.00
2023-05-14T07:32:34.760Z,464.00
2023-05-14T07:33:34.791Z,463.00
2023-05-14T07:34:34.872Z,465.00
2023-05-14T07:35:34.913Z,464.00
2023-05-14T07:36:34.976Z,464.00
2023-05-14T07:37:35.061Z,465.00
2023-05-14T07:38:35.097Z,466.00
2023-05-14T07:39:35.136Z,463.00
2023-05-14T07:40:35.203Z,462.00
2023-05-14T07:41:35.229Z,463.00
2023-05-14T07:42:37.085Z,464.00
2023-05-14T07:43:35.342Z,466.00
2023-05-14T07:44:35.373Z,466.00
2023-05-14T07:45:35.437Z,468.00
2023-05-14T07:46:35.509Z,468.00
2023-05-14T07:47:35.622Z,469.00
2023-05-14T07:48:35.621Z,470.00
2023-05-14T07:49:35.613Z,468.00
2023-05-14T07:50:35.667Z,467.00
2023-05-14T07:51:35.718Z,466.00
2023-05-14T07:52:35.748Z,464.00
2023-05-14T07:53:35.776Z,466.00
2023-05-14T07:54:35.820Z,466.00
2023-05-14T07:55:35.872Z,466.00
2023-05-14T07:56:35.933Z,469.00
2023-05-14T07:57:35.966Z,470.00
2023-05-14T07:58:36.006Z,469.00
2023-05-14T07:59:36.059Z,469.00
2023-05-14T08:00:36.115Z,467.00
2023-05-14T08:01:37.763Z,466.00
2023-05-14T08:02:36.249Z,463.00
2023-05-14T08:03:36.191Z,461.00
2023-05-14T08:04:36.330Z,462.00
2023-05-14T08:05:36.117Z,463.00
2023-05-14T08:06:36.137Z,464.00
2023-05-14T08:07:36.087Z,465.00
2023-05-14T08:08:36.083Z,465.00
2023-05-14T08:09:36.101Z,466.00
2023-05-14T08:10:36.137Z,466.00
2023-05-14T08:11:36.095Z,468.00
2023-05-14T08:12:36.066Z,468.00
2023-05-14T08:13:36.062Z,469.00
2023-05-14T08:14:36.141Z,469.00
2023-05-14T08:15:36.056Z,468.00
2023-05-14T08:16:36.057Z,467.00
2023-05-14T08:17:36.034Z,467.00
2023-05-14T08:18:36.033Z,468.00
2023-05-14T08:19:36.037Z,467.00
2023-05-14T08:20:36.023Z,466.00
2023-05-14T08:21:36.017Z,466.00
2023-05-14T08:22:35.985Z,467.00
2023-05-14T08:23:36.002Z,465.00
2023-05-14T08:24:36.062Z,464.00
2023-05-14T08:25:35.985Z,465.00
2023-05-14T08:26:35.976Z,465.00
2023-05-14T08:27:35.968Z,468.00
2023-05-14T08:28:35.959Z,466.00
2023-05-14T08:29:35.933Z,469.00
2023-05-14T08:30:35.992Z,469.00
2023-05-14T08:31:35.920Z,472.00
2023-05-14T08:32:35.926Z,473.00
2023-05-14T08:33:35.922Z,474.00
2023-05-14T08:34:35.953Z,471.00
2023-05-14T08:35:35.890Z,472.00
2023-05-14T08:36:35.896Z,468.00
2023-05-14T08:37:35.887Z,468.00
2023-05-14T08:38:35.874Z,468.00
2023-05-14T08:39:35.865Z,466.00
2023-05-14T08:40:35.961Z,466.00
2023-05-14T08:41:35.864Z,467.00
2023-05-14T08:42:35.863Z,466.00
2023-05-14T08:43:35.833Z,466.00
2023-05-14T08:44:35.967Z,466.00
2023-05-14T08:45:35.852Z,467.00
2023-05-14T08:46:35.837Z,468.00
2023-05-14T08:47:35.816Z,468.00
2023-05-14T08:48:35.818Z,465.00
2023-05-14T08:49:35.804Z,464.00
2023-05-14T08:50:35.801Z,466.00
2023-05-14T08:51:35.775Z,467.00
2023-05-14T08:52:35.798Z,467.00
2023-05-14T08:53:35.766Z,467.00
2023-05-14T08:54:35.750Z,468.00
2023-05-14T08:55:35.748Z,470.00
2023-05-14T08:56:35.743Z,467.00
2023-05-14T08:57:35.750Z,466.00
2023-05-14T08:58:35.732Z,466.00
2023-05-14T08:59:35.734Z,464.00
2023-05-14T09:00:35.718Z,465.00
2023-05-14T09:01:35.741Z,466.00
2023-05-14T09:02:35.762Z,466.00
2023-05-14T09:03:35.727Z,465.00
2023-05-14T09:04:35.702Z,465.00
2023-05-14T09:05:35.693Z,467.00
2023-05-14T09:06:35.689Z,469.00
2023-05-14T09:07:35.683Z,470.00
2023-05-14T09:08:35.671Z,471.00
2023-05-14T09:09:35.688Z,470.00
2023-05-14T09:10:35.710Z,469.00
2023-05-14T09:11:35.756Z,469.00
2023-05-14T09:12:35.768Z,467.00
2023-05-14T09:13:35.808Z,467.00
2023-05-14T09:14:35.818Z,469.00
2023-05-14T09:15:35.855Z,471.00
2023-05-14T09:16:35.905Z,472.00
2023-05-14T09:17:35.980Z,471.00
2023-05-14T09:18:35.941Z,474.00
2023-05-14T09:19:35.946Z,472.00
2023-05-14T09:20:35.999Z,471.00
2023-05-14T09:21:35.981Z,467.00
2023-05-14T09:22:36.025Z,468.00
2023-05-14T09:23:36.034Z,470.00
2023-05-14T09:24:36.043Z,470.00
2023-05-14T09:25:36.092Z,470.00
2023-05-14T09:26:36.092Z,469.00
2023-05-14T09:27:36.116Z,469.00
2023-05-14T09:28:36.107Z,468.00
2023-05-14T09:29:36.125Z,467.00
2023-05-14T09:30:36.159Z,467.00
2023-05-14T09:31:36.169Z,467.00
2023-05-14T09:32:36.138Z,468.00
2023-05-14T09:33:36.127Z,465.00
2023-05-14T09:34:36.115Z,463.00
2023-05-14T09:35:36.123Z,462.00
2023-05-14T09:36:36.163Z,461.00
2023-05-14T09:37:36.168Z,459.00
2023-05-14T09:38:36.175Z,459.00
2023-05-14T09:39:36.207Z,461.00
2023-05-14T09:40:36.220Z,461.00
2023-05-14T09:41:36.237Z,462.00
2023-05-14T09:42:36.240Z,463.00
2023-05-14T09:43:36.274Z,463.00
2023-05-14T09:44:36.279Z,464.00
2023-05-14T09:45:36.278Z,463.00
2023-05-14T09:46:36.302Z,461.00
2023-05-14T09:47:36.433Z,459.00
2023-05-14T09:48:36.384Z,458.00
2023-05-14T09:49:36.369Z,460.00
2023-05-14T09:50:36.374Z,460.00
2023-05-14T09:51:36.387Z,459.00
2023-05-14T09:52:36.418Z,460.00
2023-05-14T09:53:36.396Z,459.00
2023-05-14T09:54:36.406Z,459.00
2023-05-14T09:55:36.446Z,459.00
2023-05-14T09:56:36.454Z,458.00
2023-05-14T09:57:36.457Z,458.00
2023-05-14T09:58:36.480Z,458.00
2023-05-14T09:59:36.484Z,460.00
2023-05-14T10:00:36.478Z,462.00
2023-05-14T10:01:36.577Z,462.00
2023-05-14T10:02:36.530Z,460.00
2023-05-14T10:03:36.540Z,463.00
2023-05-14T10:04:36.619Z,462.00
2023-05-14T10:05:36.570Z,463.00
2023-05-14T10:06:36.583Z,462.00
2023-05-14T10:07:36.591Z,461.00
2023-05-14T10:08:36.599Z,460.00
2023-05-14T10:09:36.628Z,459.00
2023-05-14T10:10:36.599Z,457.00
2023-05-14T10:11:36.634Z,457.00
2023-05-14T10:12:36.600Z,456.00
2023-05-14T10:13:36.632Z,457.00
2023-05-14T10:14:36.624Z,457.00
2023-05-14T10:15:36.634Z,457.00
2023-05-14T10:16:36.654Z,459.00
2023-05-14T10:17:36.739Z,457.00
2023-05-14T10:18:36.708Z,459.00
2023-05-14T10:19:36.694Z,460.00
2023-05-14T10:20:36.698Z,459.00
2023-05-14T10:21:36.682Z,457.00
2023-05-14T10:22:36.712Z,458.00
2023-05-14T10:23:36.732Z,458.00
2023-05-14T10:24:36.711Z,459.00
2023-05-14T10:25:36.721Z,457.00
2023-05-14T10:26:36.723Z,456.00
2023-05-14T10:27:36.728Z,454.00
2023-05-14T10:28:36.733Z,456.00
2023-05-14T10:29:36.760Z,454.00
2023-05-14T10:30:36.767Z,456.00
2023-05-14T10:31:36.865Z,458.00
2023-05-14T10:32:36.833Z,457.00
2023-05-14T10:33:36.772Z,457.00
2023-05-14T10:34:36.782Z,455.00
2023-05-14T10:35:36.799Z,455.00
2023-05-14T10:36:36.786Z,456.00
2023-05-14T10:37:36.773Z,456.00
2023-05-14T10:38:36.800Z,455.00
2023-05-14T10:39:36.792Z,453.00
2023-05-14T10:40:36.764Z,454.00
2023-05-14T10:41:36.779Z,452.00
2023-05-14T10:42:36.814Z,453.00
2023-05-14T10:43:36.809Z,453.00
2023-05-14T10:44:36.818Z,456.00
2023-05-14T10:45:36.814Z,458.00
2023-05-14T10:46:36.872Z,458.00
2023-05-14T10:47:36.867Z,458.00
2023-05-14T10:48:36.804Z,458.00
2023-05-14T10:49:43.291Z,459.00
2023-05-14T10:50:37.809Z,459.00
2023-05-14T10:51:36.910Z,459.00
2023-05-14T10:52:36.822Z,457.00
2023-05-14T10:53:36.791Z,458.00
2023-05-14T10:54:36.774Z,457.00
2023-05-14T10:55:36.771Z,456.00
2023-05-14T10:56:36.768Z,457.00
2023-05-14T10:57:36.743Z,459.00
2023-05-14T10:58:36.751Z,459.00
2023-05-14T10:59:36.748Z,461.00
2023-05-14T11:00:36.732Z,461.00
2023-05-14T11:01:36.750Z,462.00
2023-05-14T11:02:36.715Z,463.00
2023-05-14T11:03:36.757Z,461.00
2023-05-14T11:04:36.736Z,462.00
2023-05-14T11:05:36.685Z,460.00
2023-05-14T11:06:36.679Z,455.00
2023-05-14T11:07:36.696Z,455.00
2023-05-14T11:08:36.673Z,455.00
2023-05-14T11:09:36.680Z,455.00
2023-05-14T11:10:36.683Z,455.00
2023-05-14T11:11:36.656Z,457.00
2023-05-14T11:12:36.674Z,456.00
2023-05-14T11:13:36.653Z,454.00
2023-05-14T11:14:36.644Z,452.00
2023-05-14T11:15:36.647Z,451.00
2023-05-14T11:16:36.661Z,452.00
2023-05-14T11:17:36.663Z,454.00
2023-05-14T11:18:36.626Z,454.00
2023-05-14T11:19:36.601Z,454.00
2023-05-14T11:20:36.604Z,453.00
2023-05-14T11:21:36.617Z,453.00
2023-05-14T11:22:36.594Z,453.00
2023-05-14T11:23:36.578Z,453.00
2023-05-14T11:24:36.570Z,453.00
2023-05-14T11:25:36.560Z,455.00
2023-05-14T11:26:36.582Z,456.00
2023-05-14T11:27:36.563Z,457.00
2023-05-14T11:28:36.539Z,458.00
2023-05-14T11:29:36.543Z,457.00
2023-05-14T11:30:36.543Z,457.00
2023-05-14T11:31:36.566Z,457.00
2023-05-14T11:32:36.581Z,456.00
2023-05-14T11:33:36.520Z,455.00
2023-05-14T11:34:36.500Z,457.00
2023-05-14T11:35:36.506Z,458.00
2023-05-14T11:36:36.478Z,459.00
2023-05-14T11:37:36.497Z,458.00
2023-05-14T11:38:36.474Z,456.00
2023-05-14T11:39:36.462Z,455.00
2023-05-14T11:40:36.481Z,452.00
2023-05-14T11:41:36.485Z,451.00
2023-05-14T11:42:36.509Z,453.00
2023-05-14T11:43:36.510Z,453.00
2023-05-14T11:44:36.522Z,454.00
2023-05-14T11:45:36.548Z,452.00
2023-05-14T11:46:36.664Z,452.00
2023-05-14T11:47:36.613Z,452.00
2023-05-14T11:48:36.565Z,453.00
2023-05-14T11:49:36.596Z,451.00
2023-05-14T11:50:36.620Z,450.00
2023-05-14T11:51:36.617Z,449.00
2023-05-14T11:52:36.641Z,451.00
2023-05-14T11:53:36.679Z,454.00
2023-05-14T11:54:36.699Z,455.00
2023-05-14T11:55:36.720Z,454.00
2023-05-14T11:56:36.735Z,455.00
2023-05-14T11:57:36.799Z,455.00
2023-05-14T11:58:36.806Z,453.00
2023-05-14T11:59:36.802Z,454.00
2023-05-14T12:00:36.832Z,454.00
2023-05-14T12:01:36.866Z,454.00
2023-05-14T12:02:37.013Z,452.00
2023-05-14T12:03:37.072Z,454.00
2023-05-14T12:04:36.981Z,454.00
2023-05-14T12:05:36.942Z,455.00
2023-05-14T12:06:37.008Z,453.00
2023-05-14T12:07:37.026Z,452.00
2023-05-14T12:08:37.041Z,451.00
2023-05-14T12:09:37.070Z,448.00
2023-05-14T12:10:37.095Z,450.00
2023-05-14T12:11:37.173Z,449.00
2023-05-14T12:12:37.411Z,450.00
2023-05-14T12:13:37.214Z,451.00
2023-05-14T12:14:37.247Z,452.00
2023-05-14T12:15:37.275Z,453.00
2023-05-14T12:16:38.509Z,452.00
2023-05-14T12:17:37.389Z,451.00
2023-05-14T12:18:37.495Z,451.00
2023-05-14T12:19:37.417Z,451.00
2023-05-14T12:20:37.435Z,452.00
2023-05-14T12:21:37.479Z,453.00
2023-05-14T12:22:37.504Z,452.00
2023-05-14T12:23:37.518Z,451.00
2023-05-14T12:24:37.562Z,451.00
2023-05-14T12:25:37.593Z,452.00
2023-05-14T12:26:37.609Z,451.00
2023-05-14T12:27:37.647Z,452.00
2023-05-14T12:28:38.660Z,453.00